Terminal Aerodrome Forecast
Issued by NWS

Current Version | Previous Version | Graphics & Text | Print | Product List | Glossary On
Versions: 1 2 3 4 5 6 7 8 9 10 11 12 13 14 15 16 17 18
550
FTUS41 KILN 240529
TAFLCK
TAF
KLCK 240529Z 2406/2506 14005KT P6SM FEW013 OVC130
     FM241600 11007KT P6SM VCSH OVC045
     FM242000 11005KT 4SM SHRA OVC025
     FM250300 09006KT 4SM BR VCSH OVC015=

USA.gov is the U.S. government's official web portal to all federal, state and local government web resources and services.